Terminal Aerodrome Forecast
Issued by NWS Charleston, WV

Current Version | Previous Version | Graphics & Text | Print | Product List | Glossary On
Versions: 1 2 3 4 5 6 7 8 9 10 11 12 13 14 15 16 17 18 19 20 21 22 23 24
000
FTUS41 KRLX 241500 AAA
TAFBKW
TAF AMD
KBKW 241500Z 2415/2512 15011G20KT P6SM OVC011
     FM241700 14011KT P6SM OVC020
     FM242000 15011G17KT 4SM SHRA OVC015
     FM250000 15012G18KT 6SM -SHRA OVC020
     FM250400 22005KT 6SM SHRA OVC020=

USA.gov is the U.S. government's official web portal to all federal, state and local government web resources and services.